sensor_id;sensor_type;location;lat;lon;timestamp;pressure;altitude;pressure_sealevel;temperature
48628;BMP280;34424;52.234;6.500;2023-09-19T00:00:59;100556;;;12.78
48628;BMP280;34424;52.234;6.500;2023-09-19T00:05:57;100559.9;;;12.72
48628;BMP280;34424;52.234;6.500;2023-09-19T00:10:56;100561.9;;;12.71
48628;BMP280;34424;52.234;6.500;2023-09-19T00:15:56;100579.3;;;12.7
48628;BMP280;34424;52.234;6.500;2023-09-19T00:20:56;100571;;;12.63
48628;BMP280;34424;52.234;6.500;2023-09-19T00:25:56;100576.8;;;12.57
48628;BMP280;34424;52.234;6.500;2023-09-19T00:30:56;100586.3;;;12.65
48628;BMP280;34424;52.234;6.500;2023-09-19T00:35:56;100583.3;;;12.65
48628;BMP280;34424;52.234;6.500;2023-09-19T00:40:56;100590.3;;;12.55
48628;BMP280;34424;52.234;6.500;2023-09-19T00:45:56;100592.5;;;12.5
48628;BMP280;34424;52.234;6.500;2023-09-19T00:50:56;100590.7;;;12.4
48628;BMP280;34424;52.234;6.500;2023-09-19T00:55:56;100597.1;;;12.36
48628;BMP280;34424;52.234;6.500;2023-09-19T01:00:56;100601.1;;;12.38
48628;BMP280;34424;52.234;6.500;2023-09-19T01:05:56;100607.3;;;12.43
48628;BMP280;34424;52.234;6.500;2023-09-19T01:10:58;100616.3;;;12.38
48628;BMP280;34424;52.234;6.500;2023-09-19T01:15:58;100616.9;;;12.38
48628;BMP280;34424;52.234;6.500;2023-09-19T01:20:57;100619;;;12.33
48628;BMP280;34424;52.234;6.500;2023-09-19T01:26:07;100623.3;;;12.28
48628;BMP280;34424;52.234;6.500;2023-09-19T01:30:56;100629;;;12.23
48628;BMP280;34424;52.234;6.500;2023-09-19T01:35:56;100629.5;;;12.26
48628;BMP280;34424;52.234;6.500;2023-09-19T01:40:57;100629.6;;;12.27
48628;BMP280;34424;52.234;6.500;2023-09-19T01:45:57;100629.8;;;12.33
48628;BMP280;34424;52.234;6.500;2023-09-19T01:50:58;100632.5;;;12.35
48628;BMP280;34424;52.234;6.500;2023-09-19T01:55:56;100629.4;;;12.28
48628;BMP280;34424;52.234;6.500;2023-09-19T02:00:56;100630.4;;;12.24
48628;BMP280;34424;52.234;6.500;2023-09-19T02:05:56;100636.5;;;12.2
48628;BMP280;34424;52.234;6.500;2023-09-19T02:10:56;100637.1;;;12.25
48628;BMP280;34424;52.234;6.500;2023-09-19T02:15:56;100641;;;12.34
48628;BMP280;34424;52.234;6.500;2023-09-19T02:20:56;100644;;;12.51
48628;BMP280;34424;52.234;6.500;2023-09-19T02:25:56;100647;;;12.45
48628;BMP280;34424;52.234;6.500;2023-09-19T02:30:56;100647;;;12.35
48628;BMP280;34424;52.234;6.500;2023-09-19T02:35:58;100650.2;;;12.21
48628;BMP280;34424;52.234;6.500;2023-09-19T02:40:56;100639.6;;;12.16
48628;BMP280;34424;52.234;6.500;2023-09-19T02:45:56;100643.2;;;12.06
48628;BMP280;34424;52.234;6.500;2023-09-19T02:50:56;100647.9;;;12.08
48628;BMP280;34424;52.234;6.500;2023-09-19T02:55:56;100658.3;;;11.99
48628;BMP280;34424;52.234;6.500;2023-09-19T03:00:56;100660.9;;;11.94
48628;BMP280;34424;52.234;6.500;2023-09-19T03:05:56;100663.1;;;11.93
48628;BMP280;34424;52.234;6.500;2023-09-19T03:10:56;100672.1;;;11.93
48628;BMP280;34424;52.234;6.500;2023-09-19T03:15:57;100669;;;11.85
48628;BMP280;34424;52.234;6.500;2023-09-19T03:20:56;100672.5;;;11.92
48628;BMP280;34424;52.234;6.500;2023-09-19T03:25:56;100673.7;;;11.92
48628;BMP280;34424;52.234;6.500;2023-09-19T03:31:03;100664.9;;;11.9
48628;BMP280;34424;52.234;6.500;2023-09-19T03:35:56;100663.5;;;12.03
48628;BMP280;34424;52.234;6.500;2023-09-19T03:40:56;100667.8;;;12.03
48628;BMP280;34424;52.234;6.500;2023-09-19T03:45:56;100674.2;;;11.98
48628;BMP280;34424;52.234;6.500;2023-09-19T03:50:56;100667.1;;;11.98
48628;BMP280;34424;52.234;6.500;2023-09-19T03:55:56;100674.3;;;11.88
48628;BMP280;34424;52.234;6.500;2023-09-19T04:00:58;100670.3;;;11.73
48628;BMP280;34424;52.234;6.500;2023-09-19T04:05:56;100666.8;;;11.71
48628;BMP280;34424;52.234;6.500;2023-09-19T04:10:56;100654.4;;;11.67
48628;BMP280;34424;52.234;6.500;2023-09-19T04:15:56;100655.1;;;11.45
48628;BMP280;34424;52.234;6.500;2023-09-19T04:20:56;100674.5;;;11.25
48628;BMP280;34424;52.234;6.500;2023-09-19T04:25:56;100684.8;;;11.07
48628;BMP280;34424;52.234;6.500;2023-09-19T04:30:56;100696.4;;;11.09
48628;BMP280;34424;52.234;6.500;2023-09-19T04:35:56;100712.9;;;11.04
48628;BMP280;34424;52.234;6.500;2023-09-19T04:41:00;100719;;;11.06
48628;BMP280;34424;52.234;6.500;2023-09-19T04:45:56;100714.9;;;11.27
48628;BMP280;34424;52.234;6.500;2023-09-19T04:50:56;100722.6;;;11.44
48628;BMP280;34424;52.234;6.500;2023-09-19T04:55:56;100732.1;;;11.55
48628;BMP280;34424;52.234;6.500;2023-09-19T05:00:56;100735.9;;;11.66
48628;BMP280;34424;52.234;6.500;2023-09-19T05:05:56;100737.9;;;11.66
48628;BMP280;34424;52.234;6.500;2023-09-19T05:10:56;100744.4;;;11.56
48628;BMP280;34424;52.234;6.500;2023-09-19T05:15:56;100743.7;;;11.38
48628;BMP280;34424;52.234;6.500;2023-09-19T05:20:56;100748;;;11.32
48628;BMP280;34424;52.234;6.500;2023-09-19T05:25:56;100740.9;;;11.27
48628;BMP280;34424;52.234;6.500;2023-09-19T05:30:56;100750.8;;;11.28
48628;BMP280;34424;52.234;6.500;2023-09-19T05:35:56;100753.4;;;11.39
48628;BMP280;34424;52.234;6.500;2023-09-19T05:40:56;100750.8;;;11.51
48628;BMP280;34424;52.234;6.500;2023-09-19T05:45:56;100758.1;;;11.65
48628;BMP280;34424;52.234;6.500;2023-09-19T05:50:56;100755.6;;;11.93
48628;BMP280;34424;52.234;6.500;2023-09-19T05:55:56;100748.9;;;12.13
48628;BMP280;34424;52.234;6.500;2023-09-19T06:00:56;100746.8;;;12.13
48628;BMP280;34424;52.234;6.500;2023-09-19T06:05:56;100752.3;;;12.26
48628;BMP280;34424;52.234;6.500;2023-09-19T06:10:56;100747.1;;;12.2
48628;BMP280;34424;52.234;6.500;2023-09-19T06:15:56;100756.6;;;12.17
48628;BMP280;34424;52.234;6.500;2023-09-19T06:20:56;100767.6;;;12.19
48628;BMP280;34424;52.234;6.500;2023-09-19T06:25:56;100773.8;;;12.22
48628;BMP280;34424;52.234;6.500;2023-09-19T06:30:56;100775.2;;;12.26
48628;BMP280;34424;52.234;6.500;2023-09-19T06:35:56;100779.1;;;12.84
48628;BMP280;34424;52.234;6.500;2023-09-19T06:40:56;100777.9;;;13.96
48628;BMP280;34424;52.234;6.500;2023-09-19T06:45:57;100783.4;;;15.3
48628;BMP280;34424;52.234;6.500;2023-09-19T06:50:56;100795.7;;;15.7
48628;BMP280;34424;52.234;6.500;2023-09-19T06:55:56;100792.7;;;16.75
48628;BMP280;34424;52.234;6.500;2023-09-19T07:00:56;100782.9;;;16.71
48628;BMP280;34424;52.234;6.500;2023-09-19T07:05:56;100775.2;;;16.27
48628;BMP280;34424;52.234;6.500;2023-09-19T07:10:56;100772.8;;;15.44
48628;BMP280;34424;52.234;6.500;2023-09-19T07:15:58;100778.9;;;15.91
48628;BMP280;34424;52.234;6.500;2023-09-19T07:21:00;100780;;;15.65
48628;BMP280;34424;52.234;6.500;2023-09-19T07:26:00;100791.2;;;15.59
48628;BMP280;34424;52.234;6.500;2023-09-19T07:30:56;100791.1;;;15.72
48628;BMP280;34424;52.234;6.500;2023-09-19T07:35:56;100788.8;;;16.48
48628;BMP280;34424;52.234;6.500;2023-09-19T07:40:59;100783.4;;;16.87
48628;BMP280;34424;52.234;6.500;2023-09-19T07:45:56;100793.8;;;17.02
48628;BMP280;34424;52.234;6.500;2023-09-19T07:51:00;100801.3;;;16.71
48628;BMP280;34424;52.234;6.500;2023-09-19T07:56:01;100807.2;;;16.59
48628;BMP280;34424;52.234;6.500;2023-09-19T08:00:56;100800.3;;;16.69
48628;BMP280;34424;52.234;6.500;2023-09-19T08:05:56;100804.6;;;17.25
48628;BMP280;34424;52.234;6.500;2023-09-19T08:10:56;100808.5;;;17.65
48628;BMP280;34424;52.234;6.500;2023-09-19T08:15:56;100804.9;;;18.29
48628;BMP280;34424;52.234;6.500;2023-09-19T08:20:56;100811.3;;;18.15
48628;BMP280;34424;52.234;6.500;2023-09-19T08:25:59;100819.4;;;18.47
48628;BMP280;34424;52.234;6.500;2023-09-19T08:30:56;100812.5;;;18.23
48628;BMP280;34424;52.234;6.500;2023-09-19T08:35:56;100826.1;;;19.61
48628;BMP280;34424;52.234;6.500;2023-09-19T08:40:56;100815.5;;;21.32
48628;BMP280;34424;52.234;6.500;2023-09-19T08:45:58;100814.3;;;20.22
48628;BMP280;34424;52.234;6.500;2023-09-19T08:50:56;100818.5;;;21.09
48628;BMP280;34424;52.234;6.500;2023-09-19T08:55:56;100808.8;;;20.18
48628;BMP280;34424;52.234;6.500;2023-09-19T09:00:56;100809.2;;;19.8
48628;BMP280;34424;52.234;6.500;2023-09-19T09:05:56;100817.6;;;20.03
48628;BMP280;34424;52.234;6.500;2023-09-19T09:10:56;100814.7;;;18.48
48628;BMP280;34424;52.234;6.500;2023-09-19T09:15:56;100811.8;;;18.07
48628;BMP280;34424;52.234;6.500;2023-09-19T09:20:56;100816.9;;;18.08
48628;BMP280;34424;52.234;6.500;2023-09-19T09:25:56;100819.4;;;18.96
48628;BMP280;34424;52.234;6.500;2023-09-19T09:30:56;100803.4;;;19.16
48628;BMP280;34424;52.234;6.500;2023-09-19T09:35:57;100813.9;;;18.65
48628;BMP280;34424;52.234;6.500;2023-09-19T09:40:56;100809.8;;;18.44
48628;BMP280;34424;52.234;6.500;2023-09-19T09:50:56;100800.3;;;21.03
48628;BMP280;34424;52.234;6.500;2023-09-19T09:56:03;100798.1;;;20.88
48628;BMP280;34424;52.234;6.500;2023-09-19T10:00:56;100793.1;;;21.3
48628;BMP280;34424;52.234;6.500;2023-09-19T10:05:56;100786.1;;;21.41
48628;BMP280;34424;52.234;6.500;2023-09-19T10:10:56;100807;;;21.46
48628;BMP280;34424;52.234;6.500;2023-09-19T10:15:56;100797.9;;;20.89
48628;BMP280;34424;52.234;6.500;2023-09-19T10:20:56;100795.8;;;21.56
48628;BMP280;34424;52.234;6.500;2023-09-19T10:25:56;100801.5;;;19.83
48628;BMP280;34424;52.234;6.500;2023-09-19T10:30:56;100791;;;18.63
48628;BMP280;34424;52.234;6.500;2023-09-19T10:35:58;100785.3;;;18.54
48628;BMP280;34424;52.234;6.500;2023-09-19T10:40:56;100784.9;;;19.45
48628;BMP280;34424;52.234;6.500;2023-09-19T10:45:57;100784.6;;;19.73
48628;BMP280;34424;52.234;6.500;2023-09-19T10:50:58;100782.5;;;19.55
48628;BMP280;34424;52.234;6.500;2023-09-19T10:55:57;100777.7;;;20.61
48628;BMP280;34424;52.234;6.500;2023-09-19T11:00:57;100780.9;;;21.49
48628;BMP280;34424;52.234;6.500;2023-09-19T11:06:06;100777.8;;;20.63
48628;BMP280;34424;52.234;6.500;2023-09-19T11:10:56;100778.2;;;20.34
48628;BMP280;34424;52.234;6.500;2023-09-19T11:21:01;100759.1;;;19.46
48628;BMP280;34424;52.234;6.500;2023-09-19T11:25:56;100745.1;;;19.59
48628;BMP280;34424;52.234;6.500;2023-09-19T11:30:56;100744.5;;;18.86
48628;BMP280;34424;52.234;6.500;2023-09-19T11:36:02;100744.8;;;18.81
48628;BMP280;34424;52.234;6.500;2023-09-19T11:46:04;100719.1;;;19.09
48628;BMP280;34424;52.234;6.500;2023-09-19T11:50:56;100728.5;;;19.24
48628;BMP280;34424;52.234;6.500;2023-09-19T11:55:56;100730.1;;;19.28
48628;BMP280;34424;52.234;6.500;2023-09-19T12:00:57;100735;;;18.93
48628;BMP280;34424;52.234;6.500;2023-09-19T12:05:56;100732.8;;;19.08
48628;BMP280;34424;52.234;6.500;2023-09-19T12:10:56;100733.6;;;19.4
48628;BMP280;34424;52.234;6.500;2023-09-19T12:15:56;100735.1;;;19.77
48628;BMP280;34424;52.234;6.500;2023-09-19T12:20:56;100725.4;;;19.71
48628;BMP280;34424;52.234;6.500;2023-09-19T12:25:56;100712.9;;;20.8
48628;BMP280;34424;52.234;6.500;2023-09-19T12:30:56;100708.2;;;20.85
48628;BMP280;34424;52.234;6.500;2023-09-19T12:35:56;100713.8;;;20.56
48628;BMP280;34424;52.234;6.500;2023-09-19T12:40:56;100717.9;;;20.55
48628;BMP280;34424;52.234;6.500;2023-09-19T12:45:56;100711.1;;;20.76
48628;BMP280;34424;52.234;6.500;2023-09-19T12:51:02;100705.4;;;20.3
48628;BMP280;34424;52.234;6.500;2023-09-19T12:56:01;100700.8;;;20.67
48628;BMP280;34424;52.234;6.500;2023-09-19T13:00:56;100703.4;;;19.83
48628;BMP280;34424;52.234;6.500;2023-09-19T13:05:57;100701.6;;;19.44
48628;BMP280;34424;52.234;6.500;2023-09-19T13:11:03;100715.6;;;18.56
48628;BMP280;34424;52.234;6.500;2023-09-19T13:15:56;100699;;;18.45
48628;BMP280;34424;52.234;6.500;2023-09-19T13:25:56;100692.8;;;18.3
48628;BMP280;34424;52.234;6.500;2023-09-19T13:30:56;100695.5;;;18.09
48628;BMP280;34424;52.234;6.500;2023-09-19T13:35:56;100704.3;;;18.14
48628;BMP280;34424;52.234;6.500;2023-09-19T13:40:56;100700.6;;;17.97
48628;BMP280;34424;52.234;6.500;2023-09-19T13:45:56;100696.4;;;17.89
48628;BMP280;34424;52.234;6.500;2023-09-19T13:50:56;100694.3;;;17.97
48628;BMP280;34424;52.234;6.500;2023-09-19T13:55:56;100686.5;;;18.12
48628;BMP280;34424;52.234;6.500;2023-09-19T14:00:56;100692.8;;;18.18
48628;BMP280;34424;52.234;6.500;2023-09-19T14:05:56;100702.4;;;17.87
48628;BMP280;34424;52.234;6.500;2023-09-19T14:10:56;100691.6;;;17.86
48628;BMP280;34424;52.234;6.500;2023-09-19T14:15:56;100695.6;;;17.92
48628;BMP280;34424;52.234;6.500;2023-09-19T14:20:56;100701.5;;;17.82
48628;BMP280;34424;52.234;6.500;2023-09-19T14:25:56;100702.4;;;17.75
48628;BMP280;34424;52.234;6.500;2023-09-19T14:30:56;100699.5;;;17.89
48628;BMP280;34424;52.234;6.500;2023-09-19T14:35:56;100695.9;;;18.34
48628;BMP280;34424;52.234;6.500;2023-09-19T14:41:02;100684.4;;;18.87
48628;BMP280;34424;52.234;6.500;2023-09-19T14:45:56;100693.3;;;18.97
48628;BMP280;34424;52.234;6.500;2023-09-19T14:50:57;100677.6;;;19.17
48628;BMP280;34424;52.234;6.500;2023-09-19T14:55:57;100671.1;;;19.4
48628;BMP280;34424;52.234;6.500;2023-09-19T15:01:00;100664.5;;;19.4
48628;BMP280;34424;52.234;6.500;2023-09-19T15:06:02;100658;;;19.05
48628;BMP280;34424;52.234;6.500;2023-09-19T15:10:57;100661;;;18.69
48628;BMP280;34424;52.234;6.500;2023-09-19T15:15:57;100660.4;;;18.64
48628;BMP280;34424;52.234;6.500;2023-09-19T15:20:57;100654;;;18.43
48628;BMP280;34424;52.234;6.500;2023-09-19T15:25:57;100667.2;;;18.3
48628;BMP280;34424;52.234;6.500;2023-09-19T15:31:01;100666.7;;;18.15
48628;BMP280;34424;52.234;6.500;2023-09-19T15:36:03;100670.2;;;17.96
48628;BMP280;34424;52.234;6.500;2023-09-19T15:40:57;100671.8;;;17.85
48628;BMP280;34424;52.234;6.500;2023-09-19T15:45:57;100670.2;;;17.72
48628;BMP280;34424;52.234;6.500;2023-09-19T15:50:57;100677.8;;;17.63
48628;BMP280;34424;52.234;6.500;2023-09-19T15:55:57;100679;;;17.62
48628;BMP280;34424;52.234;6.500;2023-09-19T16:00:57;100677.8;;;17.52
48628;BMP280;34424;52.234;6.500;2023-09-19T16:05:57;100694.8;;;17.45
48628;BMP280;34424;52.234;6.500;2023-09-19T16:10:57;100676.6;;;17.4
48628;BMP280;34424;52.234;6.500;2023-09-19T16:15:57;100680.3;;;17.37
48628;BMP280;34424;52.234;6.500;2023-09-19T16:20:57;100672.7;;;17.39
48628;BMP280;34424;52.234;6.500;2023-09-19T16:26:04;100679;;;17.38
48628;BMP280;34424;52.234;6.500;2023-09-19T16:30:57;100677.8;;;17.34
48628;BMP280;34424;52.234;6.500;2023-09-19T16:35:57;100690;;;17.34
48628;BMP280;34424;52.234;6.500;2023-09-19T16:40:57;100693.6;;;17.37
48628;BMP280;34424;52.234;6.500;2023-09-19T16:45:57;100690.7;;;17.37
48628;BMP280;34424;52.234;6.500;2023-09-19T16:50:58;100683.5;;;17.3
48628;BMP280;34424;52.234;6.500;2023-09-19T16:56:00;100683.9;;;17.21
48628;BMP280;34424;52.234;6.500;2023-09-19T17:00:57;100686.2;;;17.22
48628;BMP280;34424;52.234;6.500;2023-09-19T17:06:00;100683.6;;;17.14
48628;BMP280;34424;52.234;6.500;2023-09-19T17:11:03;100690.3;;;17.12
48628;BMP280;34424;52.234;6.500;2023-09-19T17:16:02;100675.5;;;17.07
48628;BMP280;34424;52.234;6.500;2023-09-19T17:20:57;100685.4;;;17.06
48628;BMP280;34424;52.234;6.500;2023-09-19T17:26:07;100682.4;;;17.05
48628;BMP280;34424;52.234;6.500;2023-09-19T17:30:57;100678.9;;;17.06
48628;BMP280;34424;52.234;6.500;2023-09-19T17:36:07;100680.9;;;16.97
48628;BMP280;34424;52.234;6.500;2023-09-19T17:40:57;100683.9;;;16.96
48628;BMP280;34424;52.234;6.500;2023-09-19T17:45:57;100682.8;;;16.98
48628;BMP280;34424;52.234;6.500;2023-09-19T17:51:02;100685.7;;;16.95
48628;BMP280;34424;52.234;6.500;2023-09-19T17:55:57;100684.4;;;16.95
48628;BMP280;34424;52.234;6.500;2023-09-19T18:00:57;100685.9;;;16.95
48628;BMP280;34424;52.234;6.500;2023-09-19T18:05:57;100688;;;16.95
48628;BMP280;34424;52.234;6.500;2023-09-19T18:10:57;100692.8;;;16.87
48628;BMP280;34424;52.234;6.500;2023-09-19T18:15:57;100691.2;;;16.82
48628;BMP280;34424;52.234;6.500;2023-09-19T18:20:59;100701.1;;;16.81
48628;BMP280;34424;52.234;6.500;2023-09-19T18:25:59;100700.5;;;16.76
48628;BMP280;34424;52.234;6.500;2023-09-19T18:30:57;100710.9;;;16.73
48628;BMP280;34424;52.234;6.500;2023-09-19T18:35:59;100704;;;16.52
48628;BMP280;34424;52.234;6.500;2023-09-19T18:40:57;100707.4;;;16.3
48628;BMP280;34424;52.234;6.500;2023-09-19T18:46:00;100712.2;;;16.13
48628;BMP280;34424;52.234;6.500;2023-09-19T18:50:57;100715;;;16.05
48628;BMP280;34424;52.234;6.500;2023-09-19T18:56:05;100713.5;;;16.09
48628;BMP280;34424;52.234;6.500;2023-09-19T19:01:03;100723.3;;;16.05
48628;BMP280;34424;52.234;6.500;2023-09-19T19:05:57;100726.4;;;15.96
48628;BMP280;34424;52.234;6.500;2023-09-19T19:10:57;100730.3;;;15.92
48628;BMP280;34424;52.234;6.500;2023-09-19T19:16:00;100733.6;;;15.73
48628;BMP280;34424;52.234;6.500;2023-09-19T19:21:00;100739.7;;;15.48
48628;BMP280;34424;52.234;6.500;2023-09-19T19:25:57;100729.8;;;15.52
48628;BMP280;34424;52.234;6.500;2023-09-19T19:30:57;100732.7;;;15.62
48628;BMP280;34424;52.234;6.500;2023-09-19T19:35:57;100726.5;;;15.66
48628;BMP280;34424;52.234;6.500;2023-09-19T19:41:00;100729.5;;;15.65
48628;BMP280;34424;52.234;6.500;2023-09-19T19:45:57;100727.6;;;15.62
48628;BMP280;34424;52.234;6.500;2023-09-19T19:50:57;100714.8;;;15.64
48628;BMP280;34424;52.234;6.500;2023-09-19T19:55:57;100723;;;15.55
48628;BMP280;34424;52.234;6.500;2023-09-19T20:00:57;100726.5;;;15.58
48628;BMP280;34424;52.234;6.500;2023-09-19T20:05:57;100735.6;;;15.65
48628;BMP280;34424;52.234;6.500;2023-09-19T20:10:59;100738.8;;;15.7
48628;BMP280;34424;52.234;6.500;2023-09-19T20:15:57;100736.7;;;15.72
48628;BMP280;34424;52.234;6.500;2023-09-19T20:20:57;100730.8;;;15.82
48628;BMP280;34424;52.234;6.500;2023-09-19T20:26:00;100731;;;15.84
48628;BMP280;34424;52.234;6.500;2023-09-19T20:30:57;100735.1;;;15.94
48628;BMP280;34424;52.234;6.500;2023-09-19T20:36:00;100730.1;;;16.02
48628;BMP280;34424;52.234;6.500;2023-09-19T20:40:57;100735;;;16.13
48628;BMP280;34424;52.234;6.500;2023-09-19T20:46:01;100739.5;;;16.18
48628;BMP280;34424;52.234;6.500;2023-09-19T20:50:59;100730;;;16.19
48628;BMP280;34424;52.234;6.500;2023-09-19T20:55:57;100735.8;;;16.22
48628;BMP280;34424;52.234;6.500;2023-09-19T21:00:57;100743.6;;;16.21
48628;BMP280;34424;52.234;6.500;2023-09-19T21:06:02;100734.7;;;16.21
48628;BMP280;34424;52.234;6.500;2023-09-19T21:10:57;100728.9;;;16.25
48628;BMP280;34424;52.234;6.500;2023-09-19T21:15:57;100727.4;;;16.27
48628;BMP280;34424;52.234;6.500;2023-09-19T21:20:57;100725.3;;;16.31
48628;BMP280;34424;52.234;6.500;2023-09-19T21:25:57;100722.2;;;16.31
48628;BMP280;34424;52.234;6.500;2023-09-19T21:31:01;100725.1;;;16.29
48628;BMP280;34424;52.234;6.500;2023-09-19T21:35:57;100719.8;;;16.38
48628;BMP280;34424;52.234;6.500;2023-09-19T21:41:02;100716.9;;;16.36
48628;BMP280;34424;52.234;6.500;2023-09-19T21:45:57;100712.9;;;16.37
48628;BMP280;34424;52.234;6.500;2023-09-19T21:50:57;100710.5;;;16.35
48628;BMP280;34424;52.234;6.500;2023-09-19T21:56:01;100712.1;;;16.35
48628;BMP280;34424;52.234;6.500;2023-09-19T22:00:57;100715.4;;;16.39
48628;BMP280;34424;52.234;6.500;2023-09-19T22:06:00;100704.8;;;16.39
48628;BMP280;34424;52.234;6.500;2023-09-19T22:10:57;100701.1;;;16.29
48628;BMP280;34424;52.234;6.500;2023-09-19T22:15:58;100703.3;;;16.31
48628;BMP280;34424;52.234;6.500;2023-09-19T22:20:57;100705.9;;;16.35
48628;BMP280;34424;52.234;6.500;2023-09-19T22:25:57;100705;;;16.3
48628;BMP280;34424;52.234;6.500;2023-09-19T22:30:57;100698.4;;;16.29
48628;BMP280;34424;52.234;6.500;2023-09-19T22:35:57;100701.5;;;16.31
48628;BMP280;34424;52.234;6.500;2023-09-19T22:40:57;100698.8;;;16.27
48628;BMP280;34424;52.234;6.500;2023-09-19T22:45:57;100692.6;;;16.18
48628;BMP280;34424;52.234;6.500;2023-09-19T22:50:57;100687.1;;;15.95
48628;BMP280;34424;52.234;6.500;2023-09-19T22:55:57;100688.9;;;15.88
48628;BMP280;34424;52.234;6.500;2023-09-19T23:00:57;100687.4;;;15.96
48628;BMP280;34424;52.234;6.500;2023-09-19T23:05:57;100689.2;;;16.07
48628;BMP280;34424;52.234;6.500;2023-09-19T23:10:58;100682.9;;;16.13
48628;BMP280;34424;52.234;6.500;2023-09-19T23:15:57;100682.1;;;16.14
48628;BMP280;34424;52.234;6.500;2023-09-19T23:20:57;100685.6;;;16.16
48628;BMP280;34424;52.234;6.500;2023-09-19T23:25:57;100678.7;;;16.2
48628;BMP280;34424;52.234;6.500;2023-09-19T23:30:57;100685.6;;;16.18
48628;BMP280;34424;52.234;6.500;2023-09-19T23:35:57;100682.9;;;16.22
48628;BMP280;34424;52.234;6.500;2023-09-19T23:40:57;100684.8;;;16.3
48628;BMP280;34424;52.234;6.500;2023-09-19T23:45:57;100689.8;;;16.37
48628;BMP280;34424;52.234;6.500;2023-09-19T23:50:57;100688.8;;;16.39
48628;BMP280;34424;52.234;6.500;2023-09-19T23:55:57;100687.6;;;16.38
